Time;durP1;ratioP1;P1;durP2;ratioP2;P2;SDS_P1;SDS_P2;PMS_P1;PMS_P2;Temp;Humidity;BMP_temperature;BMP_pressure;BME280_temperature;BME280_humidity;BME280_pressure;Samples;Min_cycle;Max_cycle;Signal;HPM_P1;HPM_P2
2023/07/26 00:00:17;;;;;;;2.42;1.80;;;;;;;24.23;73.18;99483.19;4916650;29;20055;-75
2023/07/26 00:02:45;;;;;;;3.53;1.75;;;;;;;24.23;74.04;99483.19;4916191;29;20526;-74
2023/07/26 00:05:13;;;;;;;3.20;2.10;;;;;;;23.99;74.21;99498.72;4915529;29;20491;-75
2023/07/26 00:07:41;;;;;;;4.97;2.38;;;;;;;24.14;75.55;99500.34;4916616;29;20052;-74
2023/07/26 00:10:09;;;;;;;2.78;1.80;;;;;;;24.11;75.90;99512.34;4915269;29;20503;-75
2023/07/26 00:12:37;;;;;;;2.88;1.92;;;;;;;24.23;75.85;99515.91;4916523;29;20044;-75
2023/07/26 00:15:06;;;;;;;3.25;2.10;;;;;;;24.10;76.26;99519.09;4916487;29;20040;-74
2023/07/26 00:17:33;;;;;;;3.05;2.30;;;;;;;24.05;76.21;99525.06;4916011;29;20060;-75
2023/07/26 00:20:03;;;;;;;2.20;1.77;;;;;;;23.89;75.33;99523.47;4914187;29;20063;-75
2023/07/26 00:22:31;;;;;;;1.83;1.50;;;;;;;23.83;77.24;99539.03;4915177;29;20048;-75
2023/07/26 00:25:00;;;;;;;2.75;1.70;;;;;;;23.78;76.17;99545.00;4916476;29;20056;-74
2023/07/26 00:27:28;;;;;;;4.68;2.00;;;;;;;23.89;77.13;99543.03;4915928;29;20499;-75
2023/07/26 00:29:56;;;;;;;3.92;1.83;;;;;;;23.80;77.08;99556.56;4915214;29;20425;-74
2023/07/26 00:32:24;;;;;;;2.72;2.22;;;;;;;23.68;78.88;99554.97;4914994;29;20079;-75
2023/07/26 00:34:52;;;;;;;2.95;2.05;;;;;;;23.58;80.11;99562.13;4898662;29;20056;-73
2023/07/26 00:37:22;;;;;;;2.67;1.83;;;;;;;23.76;78.59;99558.56;4915223;29;20052;-74
2023/07/26 00:39:51;;;;;;;3.03;1.73;;;;;;;23.74;79.71;99569.31;4915974;29;20052;-74
2023/07/26 00:42:19;;;;;;;2.88;1.70;;;;;;;23.61;81.23;99563.31;4915741;29;20071;-75
2023/07/26 00:44:47;;;;;;;4.18;2.53;;;;;;;23.71;81.82;99567.34;4898893;29;20056;-75
2023/07/26 00:47:15;;;;;;;4.35;2.10;;;;;;;23.75;81.67;99568.13;4915281;29;20082;-75
2023/07/26 00:49:43;;;;;;;3.58;2.47;;;;;;;23.76;81.88;99566.94;4915979;29;20415;-75
2023/07/26 00:52:12;;;;;;;4.18;1.98;;;;;;;23.48;82.96;99563.69;4915206;29;20063;-75
2023/07/26 00:54:40;;;;;;;4.07;2.22;;;;;;;23.47;84.43;99564.84;4915720;29;20036;-74
2023/07/26 00:57:09;;;;;;;4.75;2.20;;;;;;;23.46;84.48;99568.84;4915158;29;20064;-74
2023/07/26 00:59:37;;;;;;;4.38;2.33;;;;;;;23.45;85.38;99566.44;4914615;29;20059;-74
2023/07/26 01:02:05;;;;;;;3.15;2.45;;;;;;;23.55;85.29;99570.47;4897684;29;20063;-75
2023/07/26 01:04:33;;;;;;;4.35;2.67;;;;;;;23.44;85.84;99573.22;4895265;29;20056;-74
2023/07/26 01:07:14;;;;;;;5.32;2.83;;;;;;;23.42;86.76;99570.03;4913051;29;20499;-74
2023/07/26 01:09:55;;;;;;;4.43;2.60;;;;;;;23.33;87.16;99562.03;4899069;29;20400;-74
2023/07/26 01:12:36;;;;;;;2.35;2.13;;;;;;;23.21;88.87;99563.13;4914554;29;20407;-74
2023/07/26 01:15:08;;;;;;;3.22;2.13;;;;;;;23.33;88.67;99557.25;4915034;29;20060;-75
2023/07/26 01:17:36;;;;;;;5.10;2.33;;;;;;;23.28;89.20;99549.22;4898349;29;20052;-75
2023/07/26 01:20:05;;;;;;;2.97;2.13;;;;;;;23.13;89.66;99553.94;4899054;29;20530;-74
2023/07/26 01:22:32;;;;;;;3.53;1.85;;;;;;;23.21;89.16;99568.69;4894918;29;20044;-74
2023/07/26 01:25:00;;;;;;;3.55;2.17;;;;;;;23.35;89.26;99574.41;4896876;29;20051;-74
2023/07/26 01:27:28;;;;;;;4.05;2.50;;;;;;;23.36;89.42;99580.75;4896964;29;20060;-74
2023/07/26 01:29:56;;;;;;;3.33;2.78;;;;;;;23.08;90.12;99583.00;4898057;29;20052;-74
2023/07/26 01:32:28;;;;;;;3.03;2.45;;;;;;;23.34;89.24;99586.75;4915489;29;20562;-75
2023/07/26 01:34:57;;;;;;;5.75;2.90;;;;;;;23.39;88.59;99584.75;4914860;29;20056;-74
2023/07/26 01:37:27;;;;;;;5.20;2.38;;;;;;;23.21;89.23;99579.88;4914857;29;20056;-73
2023/07/26 01:39:55;;;;;;;6.45;2.20;;;;;;;23.25;88.09;99580.69;4896406;29;20488;-74
2023/07/26 01:42:24;;;;;;;3.88;2.40;;;;;;;23.24;87.33;99593.06;4912366;29;20055;-74
2023/07/26 01:44:52;;;;;;;3.33;2.00;;;;;;;23.22;87.21;99589.84;4902483;29;20482;-75
2023/07/26 01:47:20;;;;;;;2.55;2.13;;;;;;;23.29;86.79;99600.25;4918321;29;20142;-74
2023/07/26 01:49:48;;;;;;;2.85;1.67;;;;;;;23.26;87.31;99601.03;4917981;29;20063;-74
2023/07/26 01:52:16;;;;;;;2.92;1.83;;;;;;;23.05;88.24;99592.16;4918443;29;20059;-74
2023/07/26 01:54:44;;;;;;;3.88;2.10;;;;;;;23.00;88.03;99588.91;4901639;29;20083;-74
2023/07/26 01:57:12;;;;;;;2.72;1.80;;;;;;;23.04;88.38;99590.56;4918727;29;20040;-74
2023/07/26 01:59:40;;;;;;;3.22;2.03;;;;;;;23.10;88.46;99593.78;4902191;29;20060;-74
2023/07/26 02:02:08;;;;;;;5.57;2.33;;;;;;;23.08;88.46;99607.31;4901095;29;20056;-73
2023/07/26 02:04:36;;;;;;;2.67;2.10;;;;;;;22.80;88.68;99615.13;4918520;29;20439;-74
2023/07/26 02:07:04;;;;;;;2.13;1.92;;;;;;;22.53;90.09;99612.50;4901091;29;20043;-74
2023/07/26 02:09:32;;;;;;;2.58;2.17;;;;;;;22.59;89.63;99609.38;4901392;29;20495;-74
2023/07/26 02:12:00;;;;;;;3.08;1.83;;;;;;;22.57;88.89;99606.97;4918086;29;20110;-74
2023/07/26 02:14:28;;;;;;;2.63;1.92;;;;;;;22.47;89.13;99618.78;4897705;29;20052;-74
2023/07/26 02:16:56;;;;;;;2.63;2.22;;;;;;;22.64;88.19;99618.16;4908229;29;20048;-74
2023/07/26 02:19:24;;;;;;;3.65;1.85;;;;;;;22.62;88.01;99622.56;4916112;29;20048;-74
2023/07/26 02:21:52;;;;;;;3.03;1.77;;;;;;;22.73;88.84;99637.34;4900986;29;20048;-74
2023/07/26 02:24:19;;;;;;;2.13;1.80;;;;;;;22.50;85.39;99641.16;4901248;29;20055;-74
2023/07/26 02:26:47;;;;;;;2.10;1.48;;;;;;;22.42;85.93;99654.22;4901825;29;20044;-74
2023/07/26 02:29:15;;;;;;;2.85;1.80;;;;;;;22.57;84.95;99657.16;4884282;29;20052;-74
2023/07/26 02:31:43;;;;;;;1.90;1.60;;;;;;;22.84;84.61;99665.34;4901674;29;20051;-74
2023/07/26 02:34:11;;;;;;;1.83;1.50;;;;;;;22.90;84.46;99662.97;4918509;29;20055;-74
2023/07/26 02:36:41;;;;;;;1.90;1.55;;;;;;;22.91;84.25;99670.16;4918232;29;20060;-74
2023/07/26 02:39:09;;;;;;;2.22;1.88;;;;;;;22.78;84.22;99667.69;4917737;29;20063;-73
2023/07/26 02:41:42;;;;;;;2.40;2.00;;;;;;;22.52;86.61;99677.00;4885108;29;20059;-73
2023/07/26 02:44:17;;;;;;;2.60;1.90;;;;;;;22.69;85.55;99686.75;4901519;29;20492;-74
2023/07/26 02:46:45;;;;;;;3.95;1.80;;;;;;;22.59;85.86;99693.00;4913565;29;20048;-73
2023/07/26 02:49:14;;;;;;;4.18;1.80;;;;;;;22.53;86.18;99690.56;4899116;29;20060;-73
2023/07/26 02:51:41;;;;;;;2.42;2.17;;;;;;;22.29;87.41;99694.69;4915772;29;20067;-73
2023/07/26 02:54:09;;;;;;;2.42;1.65;;;;;;;22.34;87.14;99699.91;4905529;29;20173;-74
2023/07/26 02:56:37;;;;;;;1.85;1.55;;;;;;;22.38;86.64;99705.53;4902995;29;20059;-74
2023/07/26 02:59:05;;;;;;;5.13;1.83;;;;;;;22.44;86.28;99703.19;4896854;29;20052;-74
2023/07/26 03:01:33;;;;;;;1.98;1.45;;;;;;;22.34;86.45;99715.84;4883346;29;20052;-74
2023/07/26 03:04:02;;;;;;;3.75;2.17;;;;;;;22.37;86.14;99715.06;4917847;29;20060;-74
2023/07/26 03:06:31;;;;;;;2.65;1.98;;;;;;;22.32;87.28;99723.75;4917295;29;20780;-74
2023/07/26 03:08:59;;;;;;;3.25;2.22;;;;;;;22.34;87.66;99722.19;4902829;29;20496;-74
2023/07/26 03:11:26;;;;;;;5.32;2.55;;;;;;;22.32;88.95;99721.78;4916951;29;20407;-74
2023/07/26 03:13:55;;;;;;;2.80;2.33;;;;;;;22.15;92.42;99726.00;4917489;29;20040;-74
2023/07/26 03:16:23;;;;;;;4.20;2.72;;;;;;;22.09;94.02;99724.72;4916624;29;20501;-74
2023/07/26 03:18:51;;;;;;;4.80;3.53;;;;;;;22.06;95.09;99726.28;4901291;29;20055;-73
2023/07/26 03:21:19;;;;;;;5.38;3.45;;;;;;;22.02;95.81;99736.56;4892954;29;20044;-74
2023/07/26 03:23:47;;;;;;;5.63;3.47;;;;;;;22.08;96.11;99742.59;4915800;29;20703;-74
2023/07/26 03:26:15;;;;;;;3.95;3.33;;;;;;;21.99;97.57;99742.88;4900097;29;20060;-74
2023/07/26 03:28:43;;;;;;;4.97;3.20;;;;;;;22.01;97.84;99744.13;4916890;29;20059;-75
2023/07/26 03:31:11;;;;;;;3.55;3.10;;;;;;;22.01;98.50;99741.34;4900124;29;20530;-74
2023/07/26 03:33:39;;;;;;;6.03;3.08;;;;;;;21.93;98.48;99736.88;4899056;29;20059;-74
2023/07/26 03:36:07;;;;;;;5.43;3.10;;;;;;;22.02;98.49;99740.16;4917055;29;20466;-74
2023/07/26 03:38:35;;;;;;;6.85;3.35;;;;;;;21.91;98.58;99744.81;4914415;29;20090;-74
2023/07/26 03:41:03;;;;;;;5.35;3.13;;;;;;;21.82;99.59;99749.84;4897768;29;20040;-74
2023/07/26 03:43:43;;;;;;;7.05;3.88;;;;;;;21.68;99.67;99751.22;4886439;29;20053;-72
2023/07/26 03:46:12;;;;;;;6.90;3.13;;;;;;;22.09;98.42;99758.94;4911087;29;20059;-74
2023/07/26 03:48:40;;;;;;;4.55;3.10;;;;;;;21.94;98.57;99760.75;4916249;29;20055;-73
2023/07/26 03:51:08;;;;;;;4.90;3.20;;;;;;;21.88;99.41;99751.13;4917120;29;20044;-74
2023/07/26 03:53:36;;;;;;;4.60;3.40;;;;;;;21.71;99.15;99758.84;4899823;29;20055;-74
2023/07/26 03:56:04;;;;;;;6.47;3.53;;;;;;;21.59;100.00;99772.97;4916024;29;20055;-74
2023/07/26 03:58:32;;;;;;;5.85;3.47;;;;;;;21.54;100.00;99776.06;4915201;29;20758;-75
2023/07/26 04:01:00;;;;;;;5.47;3.65;;;;;;;21.77;100.00;99773.25;4916108;29;20067;-74
2023/07/26 04:03:28;;;;;;;5.35;4.00;;;;;;;21.52;100.00;99784.00;4916065;29;20064;-74
2023/07/26 04:05:56;;;;;;;6.28;3.60;;;;;;;21.61;100.00;99781.75;4915389;29;20059;-73
2023/07/26 04:08:24;;;;;;;6.65;3.72;;;;;;;21.61;100.00;99790.09;4907432;29;20053;-74
2023/07/26 04:10:52;;;;;;;6.88;3.78;;;;;;;21.50;100.00;99787.16;4897254;29;20492;-74
2023/07/26 04:13:21;;;;;;;6.63;3.90;;;;;;;21.54;100.00;99795.53;4897244;29;20048;-74
2023/07/26 04:15:49;;;;;;;5.90;3.60;;;;;;;21.50;100.00;99808.63;4896979;29;20063;-74
2023/07/26 04:18:17;;;;;;;7.97;3.30;;;;;;;21.65;100.00;99818.78;4900151;29;20059;-73
2023/07/26 04:20:45;;;;;;;5.97;3.15;;;;;;;21.65;99.37;99824.34;4914690;29;20529;-75
2023/07/26 04:23:13;;;;;;;5.80;3.10;;;;;;;21.55;99.25;99817.44;4916196;29;20121;-73
2023/07/26 04:25:41;;;;;;;3.58;2.20;;;;;;;21.35;96.47;99823.09;4915209;29;20083;-75
2023/07/26 04:28:09;;;;;;;4.80;2.20;;;;;;;21.26;96.41;99827.31;4916208;29;20369;-75
2023/07/26 04:30:37;;;;;;;3.58;2.20;;;;;;;21.31;93.78;99827.03;4915856;29;20056;-75
2023/07/26 04:33:05;;;;;;;2.80;1.65;;;;;;;21.29;94.13;99834.91;4915003;29;20138;-74
2023/07/26 04:35:33;;;;;;;5.35;2.10;;;;;;;21.45;93.92;99840.34;4915641;29;20051;-74
2023/07/26 04:38:00;;;;;;;2.53;1.60;;;;;;;21.58;93.79;99833.41;4916374;29;20044;-74
2023/07/26 04:40:28;;;;;;;2.63;2.03;;;;;;;21.55;93.29;99839.72;4915310;29;20067;-75
2023/07/26 04:42:56;;;;;;;2.33;2.13;;;;;;;21.62;93.16;99850.97;4915542;29;20083;-75
2023/07/26 04:45:24;;;;;;;3.50;2.53;;;;;;;21.49;93.23;99841.22;4914010;29;20059;-74
2023/07/26 04:47:52;;;;;;;4.45;2.00;;;;;;;21.50;94.91;99853.16;4913094;29;20118;-75
2023/07/26 04:50:20;;;;;;;7.10;2.58;;;;;;;21.46;96.06;99850.31;4912044;29;20052;-74
2023/07/26 04:52:48;;;;;;;6.63;2.47;;;;;;;21.58;95.22;99855.69;4899418;29;20044;-73
2023/07/26 04:55:16;;;;;;;3.17;2.75;;;;;;;21.73;95.58;99864.28;4899693;29;20049;-73
2023/07/26 04:57:43;;;;;;;6.78;2.78;;;;;;;21.75;95.16;99864.69;4897238;29;20052;-73
2023/07/26 05:00:12;;;;;;;5.53;2.38;;;;;;;21.77;96.30;99869.91;4909859;29;20530;-72
2023/07/26 05:02:40;;;;;;;4.13;2.60;;;;;;;21.97;94.77;99879.78;4907515;29;20044;-72
2023/07/26 05:05:08;;;;;;;2.78;2.25;;;;;;;22.09;94.64;99880.75;4898721;29;20396;-73
2023/07/26 05:07:36;;;;;;;3.65;2.20;;;;;;;22.15;92.85;99877.22;4897092;29;20053;-72
2023/07/26 05:10:05;;;;;;;4.60;2.00;;;;;;;22.21;91.34;99890.84;4899376;29;20049;-72
2023/07/26 05:12:33;;;;;;;2.95;2.28;;;;;;;22.16;90.99;99889.19;4907949;29;20056;-72
2023/07/26 05:15:01;;;;;;;2.63;2.10;;;;;;;22.29;89.28;99898.13;4902572;29;20048;-77
2023/07/26 05:17:29;;;;;;;8.15;2.35;;;;;;;22.37;88.12;99899.00;4913566;29;20056;-80
2023/07/26 05:19:59;;;;;;;3.20;1.92;;;;;;;22.23;88.48;99905.19;4912382;29;20056;-74
2023/07/26 05:22:27;;;;;;;2.30;2.00;;;;;;;22.35;89.04;99912.53;4902795;29;20056;-73
2023/07/26 05:24:55;;;;;;;2.45;1.75;;;;;;;22.52;89.09;99912.00;4907280;29;20503;-73
2023/07/26 05:27:23;;;;;;;1.88;1.63;;;;;;;22.40;88.99;99915.00;4911829;29;20052;-72
2023/07/26 05:29:53;;;;;;;2.70;2.13;;;;;;;22.45;88.31;99908.28;4914489;29;20055;-73
2023/07/26 05:32:21;;;;;;;3.50;2.33;;;;;;;22.61;87.97;99916.47;4934511;29;20395;-73
2023/07/26 05:34:49;;;;;;;2.75;2.10;;;;;;;22.75;87.63;99911.09;4925985;29;20044;-73
2023/07/26 05:37:17;;;;;;;1.90;1.70;;;;;;;22.81;86.46;99915.16;4913551;29;20150;-73
2023/07/26 05:39:45;;;;;;;3.40;2.00;;;;;;;22.69;87.07;99918.19;4912820;29;20051;-71
2023/07/26 05:42:13;;;;;;;5.60;2.40;;;;;;;22.80;86.87;99916.34;4914779;29;20063;-72
2023/07/26 05:44:41;;;;;;;4.30;2.35;;;;;;;22.96;86.70;99923.66;4913401;29;20488;-71
2023/07/26 05:47:10;;;;;;;5.57;2.03;;;;;;;23.09;86.47;99927.00;4909470;29;20048;-70
2023/07/26 05:49:42;;;;;;;4.57;2.17;;;;;;;23.12;86.12;99919.84;4913758;29;20515;-70
2023/07/26 05:52:11;;;;;;;2.90;2.40;;;;;;;23.12;87.23;99923.44;4914451;29;20612;-72
2023/07/26 05:54:39;;;;;;;4.85;2.47;;;;;;;23.25;86.16;99932.34;4913988;29;20052;-71
2023/07/26 05:57:07;;;;;;;3.92;2.22;;;;;;;23.23;86.69;99932.72;4914463;29;20373;-72
2023/07/26 05:59:34;;;;;;;4.85;2.88;;;;;;;23.35;85.77;99933.66;4914069;29;20063;-71
2023/07/26 06:02:03;;;;;;;5.40;2.72;;;;;;;23.35;86.18;99934.50;4902453;29;20052;-72
2023/07/26 06:04:31;;;;;;;6.00;2.65;;;;;;;23.40;86.62;99938.13;4912641;29;20063;-70
2023/07/26 06:07:02;;;;;;;4.65;2.88;;;;;;;23.16;86.90;99943.81;4907105;29;20045;-70
2023/07/26 06:09:36;;;;;;;4.70;2.95;;;;;;;23.10;87.75;99945.34;4899640;29;20510;-72
2023/07/26 06:12:05;;;;;;;3.92;2.33;;;;;;;23.35;86.06;99951.22;4902445;29;20258;-71
2023/07/26 06:14:36;;;;;;;5.75;2.88;;;;;;;23.44;85.73;99950.09;4908756;29;20048;-71
2023/07/26 06:17:04;;;;;;;3.42;2.50;;;;;;;23.60;85.08;99956.25;4911457;29;20067;-72
2023/07/26 06:19:34;;;;;;;5.70;2.35;;;;;;;23.59;84.07;99965.81;4896929;29;20413;-75
2023/07/26 06:22:03;;;;;;;2.97;2.22;;;;;;;23.55;85.31;99964.97;4914361;29;20059;-77
2023/07/26 06:24:31;;;;;;;5.32;2.58;;;;;;;23.65;83.31;99968.28;4915082;29;20040;-76
2023/07/26 06:27:00;;;;;;;3.50;2.10;;;;;;;23.69;83.48;99969.09;4908034;29;20060;-76
2023/07/26 06:29:28;;;;;;;2.50;1.98;;;;;;;23.74;81.17;99977.13;4904147;29;20067;-75
2023/07/26 06:31:58;;;;;;;3.03;1.85;;;;;;;23.86;80.84;99976.81;4910930;29;20397;-76
2023/07/26 06:34:27;;;;;;;4.28;2.38;;;;;;;23.79;81.50;99973.19;4907440;29;20056;-76
2023/07/26 06:36:55;;;;;;;2.95;2.10;;;;;;;23.84;82.36;99979.19;4909522;29;20048;-76
2023/07/26 06:39:26;;;;;;;2.83;1.85;;;;;;;24.01;82.03;99986.13;4917806;29;20589;-76
2023/07/26 06:41:55;;;;;;;2.53;2.10;;;;;;;24.08;81.10;99992.97;4916665;29;20411;-76
2023/07/26 06:44:23;;;;;;;2.85;2.13;;;;;;;24.24;79.48;99999.09;4916594;29;20424;-76
2023/07/26 06:46:52;;;;;;;5.43;2.10;;;;;;;24.27;79.30;100003.13;4917587;29;20060;-76
2023/07/26 06:49:20;;;;;;;4.53;2.20;;;;;;;24.22;77.81;99998.69;4917397;29;20056;-76
2023/07/26 06:51:51;;;;;;;4.65;2.10;;;;;;;24.21;79.97;100001.88;4918198;29;20593;-76
2023/07/26 06:54:19;;;;;;;3.20;1.80;;;;;;;24.23;78.53;100002.28;4918099;29;20079;-76
2023/07/26 06:56:47;;;;;;;2.28;1.77;;;;;;;24.37;77.79;99998.78;4918975;29;20044;-76
2023/07/26 06:59:17;;;;;;;2.75;1.80;;;;;;;24.38;75.23;100006.78;4918377;29;20442;-76
2023/07/26 07:01:45;;;;;;;1.38;1.27;;;;;;;24.52;74.85;100008.06;4918032;29;20056;-76
2023/07/26 07:04:13;;;;;;;2.30;1.25;;;;;;;24.46;71.48;100004.03;4917787;29;20064;-76
2023/07/26 07:06:43;;;;;;;1.55;1.45;;;;;;;24.47;71.25;100003.66;4918341;29;20075;-77
2023/07/26 07:09:12;;;;;;;4.63;1.30;;;;;;;24.62;69.64;100012.13;4918363;29;20056;-76
2023/07/26 07:11:40;;;;;;;3.65;1.40;;;;;;;24.65;70.10;100016.94;4918903;29;20392;-76
2023/07/26 07:14:09;;;;;;;4.00;1.70;;;;;;;24.70;70.46;100025.75;4918249;29;20044;-76
2023/07/26 07:16:38;;;;;;;3.03;1.83;;;;;;;24.74;69.48;100025.81;4918299;29;20063;-75
2023/07/26 07:19:07;;;;;;;1.98;1.15;;;;;;;24.87;68.45;100023.47;4917464;29;20055;-75
2023/07/26 07:21:35;;;;;;;1.88;1.35;;;;;;;24.93;67.28;100021.91;4917105;29;20060;-76
2023/07/26 07:24:05;;;;;;;2.72;1.52;;;;;;;24.93;68.82;100030.31;4917309;29;20447;-76
2023/07/26 07:26:33;;;;;;;2.88;1.73;;;;;;;24.89;65.91;100031.50;4916846;29;20415;-76
2023/07/26 07:29:02;;;;;;;1.77;1.30;;;;;;;25.00;67.05;100040.75;4917379;29;20547;-76
2023/07/26 07:31:30;;;;;;;3.47;1.60;;;;;;;25.01;67.07;100030.31;4916523;29;20059;-76
2023/07/26 07:33:59;;;;;;;2.42;1.95;;;;;;;25.08;66.48;100042.38;4916562;29;20056;-76
2023/07/26 07:36:28;;;;;;;1.77;1.20;;;;;;;25.14;65.42;100042.00;4916804;29;20384;-76
2023/07/26 07:38:56;;;;;;;2.30;1.70;;;;;;;25.25;66.65;100042.03;4916040;29;20060;-76
2023/07/26 07:41:25;;;;;;;1.80;1.50;;;;;;;25.35;67.77;100042.09;4916612;29;20059;-76
2023/07/26 07:43:53;;;;;;;2.03;1.48;;;;;;;25.42;66.32;100052.47;4899691;29;20412;-76
2023/07/26 07:46:22;;;;;;;2.58;1.38;;;;;;;25.51;65.65;100049.31;4916705;29;20118;-76
2023/07/26 07:48:50;;;;;;;1.67;1.52;;;;;;;25.54;65.80;100059.75;4916435;29;20056;-75
2023/07/26 07:51:18;;;;;;;2.03;1.60;;;;;;;25.68;65.99;100063.78;4916445;29;20071;-76
2023/07/26 07:53:48;;;;;;;1.77;1.40;;;;;;;25.59;64.23;100066.97;4917038;29;20357;-76
2023/07/26 07:56:17;;;;;;;3.95;1.50;;;;;;;25.72;65.11;100070.22;4916533;29;20052;-76
2023/07/26 07:58:46;;;;;;;1.38;1.17;;;;;;;25.74;63.78;100073.41;4917134;29;20044;-71
2023/07/26 08:01:14;;;;;;;3.65;1.95;;;;;;;25.87;64.08;100071.03;4916608;29;20056;-69
2023/07/26 08:03:43;;;;;;;1.63;1.38;;;;;;;25.97;63.33;100070.25;4921184;29;20059;-69
2023/07/26 08:06:12;;;;;;;2.85;1.25;;;;;;;25.94;62.48;100073.84;4935410;29;20051;-69
2023/07/26 08:08:40;;;;;;;2.50;1.38;;;;;;;25.75;60.17;100081.44;4935710;29;20059;-69
2023/07/26 08:11:09;;;;;;;3.15;1.80;;;;;;;25.73;61.99;100077.41;4918902;29;20102;-69
2023/07/26 08:13:37;;;;;;;1.60;1.20;;;;;;;25.74;62.04;100076.22;4935526;29;20056;-69
2023/07/26 08:16:06;;;;;;;1.80;1.30;;;;;;;25.87;62.55;100085.06;4935624;29;20226;-70
2023/07/26 08:18:34;;;;;;;3.47;1.25;;;;;;;26.02;61.00;100089.50;4935045;29;20063;-72
2023/07/26 08:21:04;;;;;;;3.03;1.20;;;;;;;25.99;60.71;100081.88;4935423;29;20062;-71
2023/07/26 08:23:32;;;;;;;1.38;1.13;;;;;;;26.07;61.80;100074.28;4935563;29;20051;-72
2023/07/26 08:26:05;;;;;;;2.30;1.20;;;;;;;26.23;60.84;100076.69;4935409;29;20058;-71
2023/07/26 08:28:34;;;;;;;1.60;1.15;;;;;;;26.30;62.48;100075.91;4935555;29;20058;-70
2023/07/26 08:31:02;;;;;;;2.05;1.83;;;;;;;26.36;54.90;100084.72;4935872;29;20392;-70
2023/07/26 08:33:30;;;;;;;2.13;1.10;;;;;;;26.53;55.04;100083.91;4935528;29;20043;-78
2023/07/26 08:36:01;;;;;;;1.35;1.25;;;;;;;26.56;54.01;100087.91;4935330;29;20051;-75
2023/07/26 08:38:29;;;;;;;1.58;1.10;;;;;;;26.66;56.22;100083.47;4934909;29;20051;-74
2023/07/26 08:40:58;;;;;;;1.42;1.17;;;;;;;26.55;55.88;100080.69;4935376;29;20399;-73
2023/07/26 08:43:31;;;;;;;2.15;1.40;;;;;;;26.50;55.61;100079.09;4935129;29;20514;-74
2023/07/26 08:46:01;;;;;;;1.20;1.10;;;;;;;26.45;56.41;100084.31;4934991;29;20411;-74
2023/07/26 08:48:31;;;;;;;2.88;1.10;;;;;;;26.68;56.77;100093.09;4934607;29;20074;-75
2023/07/26 08:51:01;;;;;;;1.02;0.82;;;;;;;26.49;53.58;100080.28;4917684;29;20063;-74
2023/07/26 08:53:30;;;;;;;2.55;1.00;;;;;;;26.55;55.70;100092.69;4934162;29;20047;-74
2023/07/26 08:55:59;;;;;;;1.08;0.98;;;;;;;26.70;53.66;100092.69;4934745;29;20051;-74
2023/07/26 08:58:27;;;;;;;2.13;1.27;;;;;;;26.81;54.61;100085.06;4934377;29;20074;-74
2023/07/26 09:00:58;;;;;;;2.90;1.33;;;;;;;26.94;54.87;100087.47;4934658;29;20060;-75
2023/07/26 09:03:27;;;;;;;1.30;1.20;;;;;;;27.07;55.01;100093.44;4933999;29;20402;-74
2023/07/26 09:06:06;;;;;;;2.47;1.20;;;;;;;27.12;54.38;100084.59;4934537;29;20048;-75
2023/07/26 09:08:35;;;;;;;1.55;1.20;;;;;;;27.17;55.52;100098.22;4934726;29;20063;-74
2023/07/26 09:11:23;;;;;;;2.65;1.40;;;;;;;27.12;53.89;100106.28;4934625;29;20079;-71
2023/07/26 09:13:59;;;;;;;1.20;1.05;;;;;;;27.00;53.73;100099.06;4934847;29;20074;-71
2023/07/26 09:16:31;;;;;;;1.23;0.93;;;;;;;27.15;54.94;100108.25;4934500;29;20062;-72
2023/07/26 09:19:02;;;;;;;1.42;1.15;;;;;;;27.23;53.99;100107.03;4934277;29;20058;-71
2023/07/26 09:21:34;;;;;;;1.52;1.17;;;;;;;27.17;53.18;100103.03;4917849;29;20063;-72
2023/07/26 09:24:04;;;;;;;4.75;1.45;;;;;;;27.17;53.56;100106.63;4934594;29;20051;-71
2023/07/26 09:26:41;;;;;;;1.70;0.90;;;;;;;27.19;54.19;100101.44;4934830;29;20052;-72
2023/07/26 09:29:15;;;;;;;2.38;1.15;;;;;;;27.24;52.34;100103.78;4934868;29;20052;-71
2023/07/26 09:31:44;;;;;;;2.33;1.10;;;;;;;27.18;51.38;100113.06;4934719;29;20062;-72
2023/07/26 09:34:15;;;;;;;1.45;1.00;;;;;;;27.20;51.55;100119.06;4934289;29;20055;-71
2023/07/26 09:36:48;;;;;;;2.17;1.27;;;;;;;27.23;54.04;100107.03;4917822;29;20043;-71
2023/07/26 09:39:18;;;;;;;1.83;1.15;;;;;;;27.30;53.98;100103.38;4934403;29;20060;-72
2023/07/26 09:41:47;;;;;;;1.77;1.08;;;;;;;27.48;51.42;100101.28;4934749;29;20067;-72
2023/07/26 09:44:19;;;;;;;2.05;0.88;;;;;;;27.52;48.02;100106.91;4934289;29;20361;-71
2023/07/26 09:46:52;;;;;;;1.35;1.00;;;;;;;27.67;49.55;100112.47;4933526;29;20055;-72
2023/07/26 09:49:22;;;;;;;3.33;1.08;;;;;;;27.76;47.22;100113.63;4933846;29;20060;-71
2023/07/26 09:51:54;;;;;;;0.55;0.50;;;;;;;27.89;44.97;100113.97;4933907;29;20407;-71
2023/07/26 09:54:28;;;;;;;2.78;0.63;;;;;;;28.08;42.56;100116.63;4933749;29;20407;-71
2023/07/26 09:57:03;;;;;;;2.00;0.73;;;;;;;28.14;43.31;100112.97;4933756;29;20527;-71
2023/07/26 09:59:36;;;;;;;3.75;0.80;;;;;;;28.19;45.71;100116.56;4933496;29;20137;-71
2023/07/26 10:02:11;;;;;;;8.65;1.05;;;;;;;28.01;44.88;100109.84;4933914;29;20063;-71
2023/07/26 10:04:49;;;;;;;4.43;0.60;;;;;;;28.08;45.27;100102.56;4934671;29;20056;-71
2023/07/26 10:07:18;;;;;;;0.68;0.57;;;;;;;28.11;45.20;100110.97;4937214;29;20051;-71
2023/07/26 10:09:50;;;;;;;3.10;0.63;;;;;;;28.22;46.96;100108.13;4937581;29;20063;-72
2023/07/26 10:12:24;;;;;;;3.97;1.02;;;;;;;28.20;47.80;100104.09;4936990;29;20055;-71
2023/07/26 10:14:55;;;;;;;2.08;0.90;;;;;;;28.33;46.90;100102.41;4937649;29;20055;-72
2023/07/26 10:17:26;;;;;;;1.80;1.00;;;;;;;28.14;44.41;100112.16;4937379;29;20048;-72
2023/07/26 10:19:59;;;;;;;1.50;1.10;;;;;;;28.03;44.97;100117.88;4937540;29;20051;-72
2023/07/26 10:22:28;;;;;;;0.80;0.80;;;;;;;27.98;45.89;100104.25;4938081;29;20048;-73
2023/07/26 10:24:57;;;;;;;1.00;0.90;;;;;;;27.93;45.52;100110.31;4907265;29;20070;-71
2023/07/26 10:27:26;;;;;;;1.02;0.90;;;;;;;28.07;45.03;100117.84;4915765;29;20067;-72
2023/07/26 10:29:55;;;;;;;1.15;0.95;;;;;;;28.20;45.29;100116.13;4904777;29;20071;-71
2023/07/26 10:32:23;;;;;;;1.88;1.08;;;;;;;28.44;46.63;100117.19;4899960;29;20056;-72
2023/07/26 10:34:56;;;;;;;0.98;0.80;;;;;;;28.57;46.52;100122.31;4901918;29;20059;-72
2023/07/26 10:37:33;;;;;;;0.73;0.73;;;;;;;28.50;45.42;100123.16;4908444;29;20048;-72
2023/07/26 10:40:33;;;;;;;1.05;0.65;;;;;;;28.59;44.14;100108.59;4913105;29;20064;-73
2023/07/26 10:43:19;;;;;;;1.48;0.70;;;;;;;28.49;42.83;100115.94;4915287;29;20055;-72
2023/07/26 10:45:54;;;;;;;1.23;0.52;;;;;;;28.60;42.08;100112.22;4912745;29;20052;-72
2023/07/26 10:48:27;;;;;;;0.70;0.68;;;;;;;28.76;45.18;100111.66;4911564;29;20048;-72
2023/07/26 10:50:59;;;;;;;0.77;0.77;;;;;;;28.61;44.07;100111.81;4911857;29;20044;-71
2023/07/26 10:53:37;;;;;;;0.75;0.70;;;;;;;29.04;45.46;100116.25;4913800;29;20056;-71
2023/07/26 10:56:18;;;;;;;2.08;0.80;;;;;;;29.04;44.35;100116.25;4914554;29;20048;-72
2023/07/26 10:58:53;;;;;;;1.02;0.93;;;;;;;28.97;43.73;100114.31;4915967;29;20411;-72
2023/07/26 11:01:41;;;;;;;1.20;0.77;;;;;;;29.04;42.90;100112.63;4901576;29;20052;-71
2023/07/26 11:04:15;;;;;;;0.82;0.70;;;;;;;29.12;43.91;100110.53;4916893;29;20068;-71
2023/07/26 11:06:59;;;;;;;2.25;0.80;;;;;;;29.23;43.59;100114.03;4914707;29;20044;-71
2023/07/26 11:09:30;;;;;;;1.00;0.80;;;;;;;29.20;44.85;100112.84;4898758;29;20059;-71
2023/07/26 11:12:01;;;;;;;1.60;0.88;;;;;;;29.33;45.81;100113.06;4904276;29;20063;-71
2023/07/26 11:14:32;;;;;;;1.15;0.82;;;;;;;29.34;45.89;100111.88;4910226;29;20064;-71
2023/07/26 11:17:16;;;;;;;1.88;0.80;;;;;;;29.44;43.12;100109.31;4907241;29;20052;-71
2023/07/26 11:19:49;;;;;;;1.27;0.63;;;;;;;29.51;42.74;100117.72;4915179;29;20044;-71
2023/07/26 11:22:20;;;;;;;1.35;1.08;;;;;;;29.50;43.52;100116.94;4914222;29;20063;-70
2023/07/26 11:24:49;;;;;;;1.05;0.63;;;;;;;29.52;43.82;100104.44;4909776;29;20064;-71
2023/07/26 11:27:18;;;;;;;0.73;0.68;;;;;;;29.66;42.17;100109.84;4899945;29;20055;-71
2023/07/26 11:29:47;;;;;;;2.85;1.00;;;;;;;29.64;42.31;100106.69;4915304;29;20059;-72
2023/07/26 11:32:24;;;;;;;0.93;0.85;;;;;;;29.72;41.72;100102.53;4905032;29;20060;-70
2023/07/26 11:34:57;;;;;;;0.88;0.80;;;;;;;29.75;40.48;100101.69;4897289;29;20067;-71
2023/07/26 11:37:26;;;;;;;1.38;0.73;;;;;;;29.56;41.57;100099.56;4909268;29;20048;-71
2023/07/26 11:40:06;;;;;;;4.53;0.80;;;;;;;29.61;40.14;100113.16;4916132;29;20044;-70